Aérodrome :
LOGIN :

S'inscrire | Disclaimer

   EN    FR    IT 

 










Légende :    VFR   VFR Marginal   IFR   IFR Intensif   IFR Très Intensif
Visi : 
Plafond : 
>= 8 km
>= 3000ft
5 à 8 km
1000 à 3000 ft
1500m à 5 km
500 à 1000 ft
800 à 1500m
200 à 500 ft
< 800m
< 200 ft
Symboles :   Orages  Brouillard  Fortes neiges  Fortes précipitations  Vent > 20 kt
SIGMETs :   Divers  Orages  Givrage  Turbulence  Onde Orograph.  Cendres Volcan.






- Altitude de l'aérodrome : 63 ft
- Code IATA : BZM


EHWO - Woensdrecht Airbase

DERNIER METAR :
  • 091625Z AUTO 05010KT 360V110 9999 OVC370 34/17 Q1014 BLU

METARs EXPIRÉS :
  • 091555Z AUTO 06009KT 350V080 9999 OVC380 34/17 Q1014 BLU
  • 091525Z AUTO VRB04KT 9999 BKN370 34/15 Q1015 BLU
  • 091455Z AUTO 14003KT 040V170 9999 BKN390 35/16 Q1015 BLU
  • 091425Z AUTO 12005KT 360V160 9999 FEW390 34/16 Q1015 BLU
  • 091355Z AUTO 05007KT 030V170 9999 OVC380 35/17 Q1015 BLU

Prévision TAF périmée.



MET'MAP, la Météo Aéronautique d'un coup d'oeil ! - Copyright ORBIFLY Décembre 2007 - Disclaimer

ORBIFLY MET'MAP TEAM :

Programmation & Développement : Alexandra Zaïnal
Sur une idée originale de : Baudouin d'Aumeries
Assistance à la programmation : Marc-Olivier Méhu
Soutien technique & logistique : Manuel Goepfert

Contact : metmap@orbifly.com




SOURCES & CREDITS :

   NOAA